sensor_id;sensor_type;location;lat;lon;timestamp;P1;durP1;ratioP1;P2;durP2;ratioP2
4317;SDS011;2172;53.576;9.934;2022-09-09T00:01:19;113.67;;;52.50;;
4317;SDS011;2172;53.576;9.934;2022-09-09T00:03:56;89.33;;;48.00;;
4317;SDS011;2172;53.576;9.934;2022-09-09T00:06:27;105.90;;;49.77;;
4317;SDS011;2172;53.576;9.934;2022-09-09T00:09:00;116.67;;;52.40;;
4317;SDS011;2172;53.576;9.934;2022-09-09T00:11:32;103.17;;;50.80;;
4317;SDS011;2172;53.576;9.934;2022-09-09T00:14:08;73.77;;;44.27;;
4317;SDS011;2172;53.576;9.934;2022-09-09T00:16:40;63.47;;;41.83;;
4317;SDS011;2172;53.576;9.934;2022-09-09T00:19:12;68.70;;;41.63;;
4317;SDS011;2172;53.576;9.934;2022-09-09T00:21:47;65.93;;;41.23;;
4317;SDS011;2172;53.576;9.934;2022-09-09T00:24:23;63.23;;;42.90;;
4317;SDS011;2172;53.576;9.934;2022-09-09T00:26:55;62.90;;;41.73;;
4317;SDS011;2172;53.576;9.934;2022-09-09T00:29:28;67.63;;;40.67;;
4317;SDS011;2172;53.576;9.934;2022-09-09T00:32:12;64.60;;;42.30;;
4317;SDS011;2172;53.576;9.934;2022-09-09T00:34:42;54.13;;;39.13;;
4317;SDS011;2172;53.576;9.934;2022-09-09T00:37:13;55.60;;;38.17;;
4317;SDS011;2172;53.576;9.934;2022-09-09T00:39:42;53.17;;;38.73;;
4317;SDS011;2172;53.576;9.934;2022-09-09T00:42:16;73.33;;;42.00;;
4317;SDS011;2172;53.576;9.934;2022-09-09T00:44:50;54.90;;;37.47;;
4317;SDS011;2172;53.576;9.934;2022-09-09T00:47:25;49.50;;;36.73;;
4317;SDS011;2172;53.576;9.934;2022-09-09T00:50:08;53.97;;;37.10;;
4317;SDS011;2172;53.576;9.934;2022-09-09T00:52:51;50.97;;;35.30;;
4317;SDS011;2172;53.576;9.934;2022-09-09T00:55:28;45.87;;;34.33;;
4317;SDS011;2172;53.576;9.934;2022-09-09T00:58:06;48.77;;;35.57;;
4317;SDS011;2172;53.576;9.934;2022-09-09T01:00:35;59.20;;;38.60;;
4317;SDS011;2172;53.576;9.934;2022-09-09T01:03:10;49.10;;;36.83;;
4317;SDS011;2172;53.576;9.934;2022-09-09T01:06:01;56.00;;;37.37;;
4317;SDS011;2172;53.576;9.934;2022-09-09T01:08:45;57.60;;;38.10;;
4317;SDS011;2172;53.576;9.934;2022-09-09T01:11:23;66.20;;;41.77;;
4317;SDS011;2172;53.576;9.934;2022-09-09T01:13:58;64.83;;;40.63;;
4317;SDS011;2172;53.576;9.934;2022-09-09T01:16:34;63.00;;;43.10;;
4317;SDS011;2172;53.576;9.934;2022-09-09T01:19:01;63.80;;;39.97;;
4317;SDS011;2172;53.576;9.934;2022-09-09T01:21:33;58.90;;;37.77;;
4317;SDS011;2172;53.576;9.934;2022-09-09T01:24:08;62.83;;;39.47;;
4317;SDS011;2172;53.576;9.934;2022-09-09T01:27:02;62.30;;;38.37;;
4317;SDS011;2172;53.576;9.934;2022-09-09T01:29:31;50.00;;;35.47;;
4317;SDS011;2172;53.576;9.934;2022-09-09T01:31:59;50.70;;;34.83;;
4317;SDS011;2172;53.576;9.934;2022-09-09T01:34:29;49.73;;;33.77;;
4317;SDS011;2172;53.576;9.934;2022-09-09T01:37:00;51.80;;;35.00;;
4317;SDS011;2172;53.576;9.934;2022-09-09T01:39:31;53.73;;;34.80;;
4317;SDS011;2172;53.576;9.934;2022-09-09T01:42:03;46.57;;;31.50;;
4317;SDS011;2172;53.576;9.934;2022-09-09T01:44:32;48.60;;;33.50;;
4317;SDS011;2172;53.576;9.934;2022-09-09T01:47:01;50.53;;;33.77;;
4317;SDS011;2172;53.576;9.934;2022-09-09T01:49:29;52.27;;;35.47;;
4317;SDS011;2172;53.576;9.934;2022-09-09T01:52:01;52.70;;;33.30;;
4317;SDS011;2172;53.576;9.934;2022-09-09T01:54:33;67.77;;;36.43;;
4317;SDS011;2172;53.576;9.934;2022-09-09T01:57:15;54.47;;;34.30;;
4317;SDS011;2172;53.576;9.934;2022-09-09T01:59:53;59.70;;;34.90;;
4317;SDS011;2172;53.576;9.934;2022-09-09T02:02:30;52.40;;;35.30;;
4317;SDS011;2172;53.576;9.934;2022-09-09T02:05:13;70.93;;;36.70;;
4317;SDS011;2172;53.576;9.934;2022-09-09T02:07:45;317.60;;;55.50;;
4317;SDS011;2172;53.576;9.934;2022-09-09T02:10:32;187.27;;;46.47;;
4317;SDS011;2172;53.576;9.934;2022-09-09T02:13:14;300.57;;;56.20;;
4317;SDS011;2172;53.576;9.934;2022-09-09T02:15:45;234.30;;;48.30;;
4317;SDS011;2172;53.576;9.934;2022-09-09T02:18:18;128.03;;;40.37;;
4317;SDS011;2172;53.576;9.934;2022-09-09T02:20:49;189.07;;;46.57;;
4317;SDS011;2172;53.576;9.934;2022-09-09T02:23:17;238.37;;;48.60;;
4317;SDS011;2172;53.576;9.934;2022-09-09T02:25:48;72.87;;;37.00;;
4317;SDS011;2172;53.576;9.934;2022-09-09T02:28:22;186.77;;;45.27;;
4317;SDS011;2172;53.576;9.934;2022-09-09T02:30:52;133.63;;;42.07;;
4317;SDS011;2172;53.576;9.934;2022-09-09T02:33:25;157.57;;;43.50;;
4317;SDS011;2172;53.576;9.934;2022-09-09T02:35:55;89.50;;;39.67;;
4317;SDS011;2172;53.576;9.934;2022-09-09T02:38:30;68.50;;;36.80;;
4317;SDS011;2172;53.576;9.934;2022-09-09T02:41:05;57.43;;;35.37;;
4317;SDS011;2172;53.576;9.934;2022-09-09T02:43:35;183.97;;;45.60;;
4317;SDS011;2172;53.576;9.934;2022-09-09T02:46:08;68.93;;;34.83;;
4317;SDS011;2172;53.576;9.934;2022-09-09T02:48:51;50.13;;;33.03;;
4317;SDS011;2172;53.576;9.934;2022-09-09T02:51:24;66.17;;;36.73;;
4317;SDS011;2172;53.576;9.934;2022-09-09T02:53:59;60.37;;;34.73;;
4317;SDS011;2172;53.576;9.934;2022-09-09T02:56:31;51.90;;;33.30;;
4317;SDS011;2172;53.576;9.934;2022-09-09T02:59:04;74.23;;;36.23;;
4317;SDS011;2172;53.576;9.934;2022-09-09T03:01:33;48.23;;;33.47;;
4317;SDS011;2172;53.576;9.934;2022-09-09T03:04:01;53.73;;;35.30;;
4317;SDS011;2172;53.576;9.934;2022-09-09T03:06:30;56.20;;;33.27;;
4317;SDS011;2172;53.576;9.934;2022-09-09T03:09:06;52.87;;;33.40;;
4317;SDS011;2172;53.576;9.934;2022-09-09T03:11:36;49.63;;;31.03;;
4317;SDS011;2172;53.576;9.934;2022-09-09T03:14:06;47.63;;;31.23;;
4317;SDS011;2172;53.576;9.934;2022-09-09T03:16:36;49.60;;;32.50;;
4317;SDS011;2172;53.576;9.934;2022-09-09T03:19:04;41.50;;;29.17;;
4317;SDS011;2172;53.576;9.934;2022-09-09T03:21:31;43.80;;;30.93;;
4317;SDS011;2172;53.576;9.934;2022-09-09T03:23:58;39.33;;;29.80;;
4317;SDS011;2172;53.576;9.934;2022-09-09T03:26:29;47.30;;;31.87;;
4317;SDS011;2172;53.576;9.934;2022-09-09T03:28:57;37.47;;;26.80;;
4317;SDS011;2172;53.576;9.934;2022-09-09T03:31:27;49.60;;;31.40;;
4317;SDS011;2172;53.576;9.934;2022-09-09T03:33:57;43.93;;;29.17;;
4317;SDS011;2172;53.576;9.934;2022-09-09T03:36:26;41.07;;;28.57;;
4317;SDS011;2172;53.576;9.934;2022-09-09T03:38:54;44.97;;;30.90;;
4317;SDS011;2172;53.576;9.934;2022-09-09T03:41:24;36.60;;;27.00;;
4317;SDS011;2172;53.576;9.934;2022-09-09T03:43:52;48.53;;;30.83;;
4317;SDS011;2172;53.576;9.934;2022-09-09T03:46:23;39.73;;;29.17;;
4317;SDS011;2172;53.576;9.934;2022-09-09T03:48:53;44.10;;;29.07;;
4317;SDS011;2172;53.576;9.934;2022-09-09T03:51:20;39.67;;;28.30;;
4317;SDS011;2172;53.576;9.934;2022-09-09T03:53:48;40.53;;;28.93;;
4317;SDS011;2172;53.576;9.934;2022-09-09T03:56:15;42.73;;;30.53;;
4317;SDS011;2172;53.576;9.934;2022-09-09T03:58:44;38.30;;;27.13;;
4317;SDS011;2172;53.576;9.934;2022-09-09T04:01:12;38.00;;;26.47;;
4317;SDS011;2172;53.576;9.934;2022-09-09T04:03:42;37.63;;;27.07;;
4317;SDS011;2172;53.576;9.934;2022-09-09T04:06:12;36.43;;;27.03;;
4317;SDS011;2172;53.576;9.934;2022-09-09T04:08:43;39.70;;;27.33;;
4317;SDS011;2172;53.576;9.934;2022-09-09T04:11:14;37.17;;;27.97;;
4317;SDS011;2172;53.576;9.934;2022-09-09T04:13:42;34.23;;;26.33;;
4317;SDS011;2172;53.576;9.934;2022-09-09T04:16:11;41.13;;;28.37;;
4317;SDS011;2172;53.576;9.934;2022-09-09T04:18:40;31.70;;;25.37;;
4317;SDS011;2172;53.576;9.934;2022-09-09T04:21:08;37.10;;;25.80;;
4317;SDS011;2172;53.576;9.934;2022-09-09T04:23:39;43.33;;;27.77;;
4317;SDS011;2172;53.576;9.934;2022-09-09T04:26:06;39.10;;;26.90;;
4317;SDS011;2172;53.576;9.934;2022-09-09T04:28:35;38.23;;;25.83;;
4317;SDS011;2172;53.576;9.934;2022-09-09T04:31:09;34.60;;;25.73;;
4317;SDS011;2172;53.576;9.934;2022-09-09T04:33:39;33.77;;;25.60;;
4317;SDS011;2172;53.576;9.934;2022-09-09T04:36:08;33.33;;;25.70;;
4317;SDS011;2172;53.576;9.934;2022-09-09T04:38:37;39.50;;;25.80;;
4317;SDS011;2172;53.576;9.934;2022-09-09T04:41:06;35.30;;;24.60;;
4317;SDS011;2172;53.576;9.934;2022-09-09T04:43:38;35.83;;;26.07;;
4317;SDS011;2172;53.576;9.934;2022-09-09T04:46:07;30.00;;;24.03;;
4317;SDS011;2172;53.576;9.934;2022-09-09T04:48:34;30.00;;;23.60;;
4317;SDS011;2172;53.576;9.934;2022-09-09T04:51:04;32.00;;;23.10;;
4317;SDS011;2172;53.576;9.934;2022-09-09T04:53:34;34.73;;;22.73;;
4317;SDS011;2172;53.576;9.934;2022-09-09T04:56:04;29.07;;;23.27;;
4317;SDS011;2172;53.576;9.934;2022-09-09T04:58:37;28.73;;;22.97;;
4317;SDS011;2172;53.576;9.934;2022-09-09T05:01:06;25.90;;;20.30;;
4317;SDS011;2172;53.576;9.934;2022-09-09T05:03:36;26.67;;;20.97;;
4317;SDS011;2172;53.576;9.934;2022-09-09T05:06:06;29.10;;;21.20;;
4317;SDS011;2172;53.576;9.934;2022-09-09T05:08:35;24.30;;;20.13;;
4317;SDS011;2172;53.576;9.934;2022-09-09T05:11:11;29.63;;;20.80;;
4317;SDS011;2172;53.576;9.934;2022-09-09T05:13:40;25.33;;;20.77;;
4317;SDS011;2172;53.576;9.934;2022-09-09T05:16:08;27.20;;;21.10;;
4317;SDS011;2172;53.576;9.934;2022-09-09T05:18:36;27.43;;;20.70;;
4317;SDS011;2172;53.576;9.934;2022-09-09T05:21:05;23.27;;;18.67;;
4317;SDS011;2172;53.576;9.934;2022-09-09T05:23:32;26.13;;;18.03;;
4317;SDS011;2172;53.576;9.934;2022-09-09T05:26:02;25.17;;;18.30;;
4317;SDS011;2172;53.576;9.934;2022-09-09T05:28:33;23.40;;;18.60;;
4317;SDS011;2172;53.576;9.934;2022-09-09T05:31:02;24.50;;;18.03;;
4317;SDS011;2172;53.576;9.934;2022-09-09T05:33:32;23.37;;;16.43;;
4317;SDS011;2172;53.576;9.934;2022-09-09T05:36:01;20.50;;;18.00;;
4317;SDS011;2172;53.576;9.934;2022-09-09T05:38:29;20.97;;;17.30;;
4317;SDS011;2172;53.576;9.934;2022-09-09T05:40:59;24.27;;;17.20;;
4317;SDS011;2172;53.576;9.934;2022-09-09T05:43:29;22.07;;;17.90;;
4317;SDS011;2172;53.576;9.934;2022-09-09T05:45:58;20.90;;;17.10;;
4317;SDS011;2172;53.576;9.934;2022-09-09T05:48:31;21.30;;;16.77;;
4317;SDS011;2172;53.576;9.934;2022-09-09T05:51:00;19.50;;;15.90;;
4317;SDS011;2172;53.576;9.934;2022-09-09T05:53:29;19.90;;;15.87;;
4317;SDS011;2172;53.576;9.934;2022-09-09T05:56:00;17.83;;;15.93;;
4317;SDS011;2172;53.576;9.934;2022-09-09T05:58:32;20.80;;;17.50;;
4317;SDS011;2172;53.576;9.934;2022-09-09T06:01:03;19.10;;;17.10;;
4317;SDS011;2172;53.576;9.934;2022-09-09T06:03:33;19.40;;;16.47;;
4317;SDS011;2172;53.576;9.934;2022-09-09T06:06:01;21.53;;;16.20;;
4317;SDS011;2172;53.576;9.934;2022-09-09T06:08:31;20.30;;;16.83;;
4317;SDS011;2172;53.576;9.934;2022-09-09T06:11:02;21.47;;;17.60;;
4317;SDS011;2172;53.576;9.934;2022-09-09T06:13:33;17.53;;;15.53;;
4317;SDS011;2172;53.576;9.934;2022-09-09T06:16:02;18.27;;;16.17;;
4317;SDS011;2172;53.576;9.934;2022-09-09T06:18:30;18.20;;;15.50;;
4317;SDS011;2172;53.576;9.934;2022-09-09T06:20:58;17.47;;;15.53;;
4317;SDS011;2172;53.576;9.934;2022-09-09T06:23:29;24.10;;;19.83;;
4317;SDS011;2172;53.576;9.934;2022-09-09T06:26:01;17.80;;;15.53;;
4317;SDS011;2172;53.576;9.934;2022-09-09T06:28:34;18.43;;;14.40;;
4317;SDS011;2172;53.576;9.934;2022-09-09T06:31:02;16.23;;;14.50;;
4317;SDS011;2172;53.576;9.934;2022-09-09T06:33:32;17.77;;;13.90;;
4317;SDS011;2172;53.576;9.934;2022-09-09T06:36:01;20.47;;;13.50;;
4317;SDS011;2172;53.576;9.934;2022-09-09T06:38:31;16.53;;;14.00;;
4317;SDS011;2172;53.576;9.934;2022-09-09T06:40:59;18.73;;;13.23;;
4317;SDS011;2172;53.576;9.934;2022-09-09T06:43:28;14.90;;;13.30;;
4317;SDS011;2172;53.576;9.934;2022-09-09T06:45:57;17.17;;;13.23;;
4317;SDS011;2172;53.576;9.934;2022-09-09T06:48:26;18.90;;;13.47;;
4317;SDS011;2172;53.576;9.934;2022-09-09T06:51:00;13.60;;;12.20;;
4317;SDS011;2172;53.576;9.934;2022-09-09T06:53:29;15.70;;;13.10;;
4317;SDS011;2172;53.576;9.934;2022-09-09T06:55:59;14.93;;;13.43;;
4317;SDS011;2172;53.576;9.934;2022-09-09T06:58:28;16.10;;;13.10;;
4317;SDS011;2172;53.576;9.934;2022-09-09T07:01:03;15.03;;;13.00;;
4317;SDS011;2172;53.576;9.934;2022-09-09T07:03:31;14.27;;;12.60;;
4317;SDS011;2172;53.576;9.934;2022-09-09T07:06:00;13.23;;;11.93;;
4317;SDS011;2172;53.576;9.934;2022-09-09T07:08:29;14.37;;;12.00;;
4317;SDS011;2172;53.576;9.934;2022-09-09T07:11:01;15.57;;;13.80;;
4317;SDS011;2172;53.576;9.934;2022-09-09T07:13:31;14.80;;;10.37;;
4317;SDS011;2172;53.576;9.934;2022-09-09T07:16:04;10.73;;;8.03;;
4317;SDS011;2172;53.576;9.934;2022-09-09T07:18:32;10.03;;;8.37;;
4317;SDS011;2172;53.576;9.934;2022-09-09T07:21:00;14.93;;;7.47;;
4317;SDS011;2172;53.576;9.934;2022-09-09T07:23:29;13.47;;;7.67;;
4317;SDS011;2172;53.576;9.934;2022-09-09T07:25:56;10.73;;;6.70;;
4317;SDS011;2172;53.576;9.934;2022-09-09T07:28:25;10.57;;;7.07;;
4317;SDS011;2172;53.576;9.934;2022-09-09T07:30:54;7.87;;;6.13;;
4317;SDS011;2172;53.576;9.934;2022-09-09T07:33:23;8.10;;;6.87;;
4317;SDS011;2172;53.576;9.934;2022-09-09T07:35:51;9.67;;;7.50;;
4317;SDS011;2172;53.576;9.934;2022-09-09T07:38:19;10.40;;;7.90;;
4317;SDS011;2172;53.576;9.934;2022-09-09T07:40:48;7.63;;;6.83;;
4317;SDS011;2172;53.576;9.934;2022-09-09T07:43:15;12.83;;;7.30;;
4317;SDS011;2172;53.576;9.934;2022-09-09T07:45:44;16.27;;;7.80;;
4317;SDS011;2172;53.576;9.934;2022-09-09T07:48:12;6.90;;;6.17;;
4317;SDS011;2172;53.576;9.934;2022-09-09T07:50:41;7.77;;;5.87;;
4317;SDS011;2172;53.576;9.934;2022-09-09T07:53:09;7.43;;;5.63;;
4317;SDS011;2172;53.576;9.934;2022-09-09T07:55:36;6.00;;;5.50;;
4317;SDS011;2172;53.576;9.934;2022-09-09T07:58:03;8.70;;;6.33;;
4317;SDS011;2172;53.576;9.934;2022-09-09T08:00:31;8.80;;;6.77;;
4317;SDS011;2172;53.576;9.934;2022-09-09T08:02:59;7.60;;;6.00;;
4317;SDS011;2172;53.576;9.934;2022-09-09T08:05:27;7.30;;;5.43;;
4317;SDS011;2172;53.576;9.934;2022-09-09T08:07:56;8.17;;;5.70;;
4317;SDS011;2172;53.576;9.934;2022-09-09T08:10:24;6.30;;;5.27;;
4317;SDS011;2172;53.576;9.934;2022-09-09T08:12:53;6.20;;;5.60;;
4317;SDS011;2172;53.576;9.934;2022-09-09T08:15:21;7.67;;;5.70;;
4317;SDS011;2172;53.576;9.934;2022-09-09T08:17:48;7.13;;;5.53;;
4317;SDS011;2172;53.576;9.934;2022-09-09T08:20:16;5.80;;;5.20;;
4317;SDS011;2172;53.576;9.934;2022-09-09T08:22:43;6.90;;;5.60;;
4317;SDS011;2172;53.576;9.934;2022-09-09T08:25:13;5.90;;;4.80;;
4317;SDS011;2172;53.576;9.934;2022-09-09T08:27:40;7.10;;;5.50;;
4317;SDS011;2172;53.576;9.934;2022-09-09T08:30:09;6.10;;;5.13;;
4317;SDS011;2172;53.576;9.934;2022-09-09T08:32:37;10.00;;;5.13;;
4317;SDS011;2172;53.576;9.934;2022-09-09T08:35:05;6.70;;;5.17;;
4317;SDS011;2172;53.576;9.934;2022-09-09T08:37:33;6.33;;;5.07;;
4317;SDS011;2172;53.576;9.934;2022-09-09T08:40:00;6.60;;;5.57;;
4317;SDS011;2172;53.576;9.934;2022-09-09T08:42:33;9.73;;;5.10;;
4317;SDS011;2172;53.576;9.934;2022-09-09T08:45:16;6.70;;;5.10;;
4317;SDS011;2172;53.576;9.934;2022-09-09T08:47:53;5.83;;;4.30;;
4317;SDS011;2172;53.576;9.934;2022-09-09T08:50:27;6.33;;;4.47;;
4317;SDS011;2172;53.576;9.934;2022-09-09T08:53:02;5.50;;;4.00;;
4317;SDS011;2172;53.576;9.934;2022-09-09T08:55:35;6.57;;;5.67;;
4317;SDS011;2172;53.576;9.934;2022-09-09T08:58:11;8.57;;;4.30;;
4317;SDS011;2172;53.576;9.934;2022-09-09T09:00:44;5.00;;;3.67;;
4317;SDS011;2172;53.576;9.934;2022-09-09T09:03:19;6.07;;;4.87;;
4317;SDS011;2172;53.576;9.934;2022-09-09T09:05:54;4.50;;;3.30;;
4317;SDS011;2172;53.576;9.934;2022-09-09T09:08:29;4.87;;;3.20;;
4317;SDS011;2172;53.576;9.934;2022-09-09T09:11:00;4.10;;;3.60;;
4317;SDS011;2172;53.576;9.934;2022-09-09T09:13:34;5.50;;;3.13;;
4317;SDS011;2172;53.576;9.934;2022-09-09T09:16:10;5.10;;;3.47;;
4317;SDS011;2172;53.576;9.934;2022-09-09T09:18:42;2.60;;;2.10;;
4317;SDS011;2172;53.576;9.934;2022-09-09T09:21:10;5.23;;;2.80;;
4317;SDS011;2172;53.576;9.934;2022-09-09T09:23:42;3.10;;;2.80;;
4317;SDS011;2172;53.576;9.934;2022-09-09T09:26:14;4.07;;;2.60;;
4317;SDS011;2172;53.576;9.934;2022-09-09T09:28:43;4.23;;;2.70;;
4317;SDS011;2172;53.576;9.934;2022-09-09T09:31:14;2.70;;;2.33;;
4317;SDS011;2172;53.576;9.934;2022-09-09T09:33:47;7.93;;;3.23;;
4317;SDS011;2172;53.576;9.934;2022-09-09T09:36:21;3.00;;;2.47;;
4317;SDS011;2172;53.576;9.934;2022-09-09T09:38:52;5.60;;;3.10;;
4317;SDS011;2172;53.576;9.934;2022-09-09T09:41:29;3.03;;;2.70;;
4317;SDS011;2172;53.576;9.934;2022-09-09T09:44:02;5.07;;;2.53;;
4317;SDS011;2172;53.576;9.934;2022-09-09T09:46:31;4.30;;;3.00;;
4317;SDS011;2172;53.576;9.934;2022-09-09T09:49:09;5.10;;;2.90;;
4317;SDS011;2172;53.576;9.934;2022-09-09T09:51:39;3.57;;;3.00;;
4317;SDS011;2172;53.576;9.934;2022-09-09T09:54:14;4.37;;;2.70;;
4317;SDS011;2172;53.576;9.934;2022-09-09T09:56:51;3.30;;;2.73;;
4317;SDS011;2172;53.576;9.934;2022-09-09T09:59:21;4.23;;;2.20;;
4317;SDS011;2172;53.576;9.934;2022-09-09T10:01:50;4.00;;;2.43;;
4317;SDS011;2172;53.576;9.934;2022-09-09T10:04:19;5.00;;;2.33;;
4317;SDS011;2172;53.576;9.934;2022-09-09T10:06:53;3.00;;;2.60;;
4317;SDS011;2172;53.576;9.934;2022-09-09T10:09:21;2.47;;;2.20;;
4317;SDS011;2172;53.576;9.934;2022-09-09T10:11:52;11.30;;;9.63;;
4317;SDS011;2172;53.576;9.934;2022-09-09T10:14:27;7.90;;;6.20;;
4317;SDS011;2172;53.576;9.934;2022-09-09T10:17:04;3.80;;;3.10;;
4317;SDS011;2172;53.576;9.934;2022-09-09T10:19:43;4.10;;;2.80;;
4317;SDS011;2172;53.576;9.934;2022-09-09T10:22:19;3.80;;;3.07;;
4317;SDS011;2172;53.576;9.934;2022-09-09T10:24:59;5.37;;;2.53;;
4317;SDS011;2172;53.576;9.934;2022-09-09T10:27:41;5.13;;;3.23;;
4317;SDS011;2172;53.576;9.934;2022-09-09T10:30:18;8.00;;;3.10;;
4317;SDS011;2172;53.576;9.934;2022-09-09T10:32:47;3.70;;;3.00;;
4317;SDS011;2172;53.576;9.934;2022-09-09T10:35:30;4.50;;;2.30;;
4317;SDS011;2172;53.576;9.934;2022-09-09T10:38:08;3.17;;;2.37;;
4317;SDS011;2172;53.576;9.934;2022-09-09T10:40:42;2.77;;;2.50;;
4317;SDS011;2172;53.576;9.934;2022-09-09T10:43:20;4.93;;;2.00;;
4317;SDS011;2172;53.576;9.934;2022-09-09T10:45:59;3.80;;;2.47;;
4317;SDS011;2172;53.576;9.934;2022-09-09T10:48:31;5.20;;;2.90;;
4317;SDS011;2172;53.576;9.934;2022-09-09T10:51:11;4.20;;;3.23;;
4317;SDS011;2172;53.576;9.934;2022-09-09T10:53:49;2.70;;;2.20;;
4317;SDS011;2172;53.576;9.934;2022-09-09T10:56:20;3.77;;;2.30;;
4317;SDS011;2172;53.576;9.934;2022-09-09T10:58:51;5.57;;;3.07;;
4317;SDS011;2172;53.576;9.934;2022-09-09T11:01:24;6.43;;;2.10;;
4317;SDS011;2172;53.576;9.934;2022-09-09T11:03:55;2.60;;;2.30;;
4317;SDS011;2172;53.576;9.934;2022-09-09T11:06:29;4.37;;;2.60;;
4317;SDS011;2172;53.576;9.934;2022-09-09T11:08:58;3.57;;;1.90;;
4317;SDS011;2172;53.576;9.934;2022-09-09T11:11:27;6.30;;;2.63;;
4317;SDS011;2172;53.576;9.934;2022-09-09T11:13:59;4.53;;;2.00;;
4317;SDS011;2172;53.576;9.934;2022-09-09T11:16:33;3.23;;;2.40;;
4317;SDS011;2172;53.576;9.934;2022-09-09T11:19:11;2.03;;;1.80;;
4317;SDS011;2172;53.576;9.934;2022-09-09T11:21:41;3.20;;;2.60;;
4317;SDS011;2172;53.576;9.934;2022-09-09T11:24:12;5.13;;;2.10;;
4317;SDS011;2172;53.576;9.934;2022-09-09T11:26:43;5.30;;;2.77;;
4317;SDS011;2172;53.576;9.934;2022-09-09T11:29:20;7.07;;;2.50;;
4317;SDS011;2172;53.576;9.934;2022-09-09T11:32:16;4.77;;;4.03;;
4317;SDS011;2172;53.576;9.934;2022-09-09T11:35:00;4.27;;;2.73;;
4317;SDS011;2172;53.576;9.934;2022-09-09T11:37:38;4.07;;;2.90;;
4317;SDS011;2172;53.576;9.934;2022-09-09T11:40:17;4.47;;;2.50;;
4317;SDS011;2172;53.576;9.934;2022-09-09T11:42:47;3.97;;;2.50;;
4317;SDS011;2172;53.576;9.934;2022-09-09T11:45:19;5.07;;;2.20;;
4317;SDS011;2172;53.576;9.934;2022-09-09T11:47:54;4.40;;;2.80;;
4317;SDS011;2172;53.576;9.934;2022-09-09T11:50:32;3.87;;;2.03;;
4317;SDS011;2172;53.576;9.934;2022-09-09T11:53:05;2.40;;;2.20;;
4317;SDS011;2172;53.576;9.934;2022-09-09T11:55:46;4.07;;;2.13;;
4317;SDS011;2172;53.576;9.934;2022-09-09T11:58:15;4.33;;;2.40;;
4317;SDS011;2172;53.576;9.934;2022-09-09T12:00:45;9.90;;;2.30;;
4317;SDS011;2172;53.576;9.934;2022-09-09T12:06:08;3.23;;;2.50;;
4317;SDS011;2172;53.576;9.934;2022-09-09T12:08:42;2.53;;;2.33;;
4317;SDS011;2172;53.576;9.934;2022-09-09T12:11:11;5.57;;;2.53;;
4317;SDS011;2172;53.576;9.934;2022-09-09T12:13:39;2.87;;;2.53;;
4317;SDS011;2172;53.576;9.934;2022-09-09T12:19:03;5.93;;;3.10;;
4317;SDS011;2172;53.576;9.934;2022-09-09T12:21:33;5.60;;;3.53;;
4317;SDS011;2172;53.576;9.934;2022-09-09T12:24:06;3.50;;;2.50;;
4317;SDS011;2172;53.576;9.934;2022-09-09T12:26:37;5.33;;;2.67;;
4317;SDS011;2172;53.576;9.934;2022-09-09T12:29:21;4.43;;;2.70;;
4317;SDS011;2172;53.576;9.934;2022-09-09T12:32:06;3.80;;;2.80;;
4317;SDS011;2172;53.576;9.934;2022-09-09T12:34:44;6.70;;;3.53;;
4317;SDS011;2172;53.576;9.934;2022-09-09T12:40:54;6.70;;;2.77;;
4317;SDS011;2172;53.576;9.934;2022-09-09T12:46:50;2.90;;;2.53;;
4317;SDS011;2172;53.576;9.934;2022-09-09T12:49:50;4.93;;;4.33;;
4317;SDS011;2172;53.576;9.934;2022-09-09T12:56:03;4.70;;;3.63;;
4317;SDS011;2172;53.576;9.934;2022-09-09T12:58:38;7.67;;;3.30;;
4317;SDS011;2172;53.576;9.934;2022-09-09T13:06:51;3.23;;;2.93;;
4317;SDS011;2172;53.576;9.934;2022-09-09T13:09:20;5.40;;;3.53;;
4317;SDS011;2172;53.576;9.934;2022-09-09T13:11:49;5.60;;;4.20;;
4317;SDS011;2172;53.576;9.934;2022-09-09T13:14:19;6.43;;;4.57;;
4317;SDS011;2172;53.576;9.934;2022-09-09T13:16:54;5.80;;;4.50;;
4317;SDS011;2172;53.576;9.934;2022-09-09T13:19:23;5.87;;;5.37;;
4317;SDS011;2172;53.576;9.934;2022-09-09T13:21:54;8.60;;;5.33;;
4317;SDS011;2172;53.576;9.934;2022-09-09T13:24:25;5.20;;;4.63;;
4317;SDS011;2172;53.576;9.934;2022-09-09T13:26:55;5.93;;;4.10;;
4317;SDS011;2172;53.576;9.934;2022-09-09T13:29:23;6.63;;;3.60;;
4317;SDS011;2172;53.576;9.934;2022-09-09T13:31:50;11.20;;;5.13;;
4317;SDS011;2172;53.576;9.934;2022-09-09T13:34:26;8.20;;;4.80;;
4317;SDS011;2172;53.576;9.934;2022-09-09T13:36:57;8.30;;;3.50;;
4317;SDS011;2172;53.576;9.934;2022-09-09T13:39:28;9.00;;;4.33;;
4317;SDS011;2172;53.576;9.934;2022-09-09T13:41:55;5.80;;;3.83;;
4317;SDS011;2172;53.576;9.934;2022-09-09T13:44:24;7.20;;;4.53;;
4317;SDS011;2172;53.576;9.934;2022-09-09T13:47:00;9.83;;;4.70;;
4317;SDS011;2172;53.576;9.934;2022-09-09T13:49:31;8.10;;;4.60;;
4317;SDS011;2172;53.576;9.934;2022-09-09T13:52:04;13.97;;;5.10;;
4317;SDS011;2172;53.576;9.934;2022-09-09T13:54:35;7.40;;;5.20;;
4317;SDS011;2172;53.576;9.934;2022-09-09T13:57:03;9.27;;;6.07;;
4317;SDS011;2172;53.576;9.934;2022-09-09T13:59:31;5.60;;;5.10;;
4317;SDS011;2172;53.576;9.934;2022-09-09T14:01:59;6.93;;;5.40;;
4317;SDS011;2172;53.576;9.934;2022-09-09T14:04:26;8.90;;;5.87;;
4317;SDS011;2172;53.576;9.934;2022-09-09T14:06:54;9.40;;;6.27;;
4317;SDS011;2172;53.576;9.934;2022-09-09T14:09:23;6.40;;;5.80;;
4317;SDS011;2172;53.576;9.934;2022-09-09T14:11:51;6.30;;;5.60;;
4317;SDS011;2172;53.576;9.934;2022-09-09T14:14:20;7.93;;;6.50;;
4317;SDS011;2172;53.576;9.934;2022-09-09T14:16:47;8.13;;;6.60;;
4317;SDS011;2172;53.576;9.934;2022-09-09T14:19:14;7.20;;;6.50;;
4317;SDS011;2172;53.576;9.934;2022-09-09T14:21:42;8.50;;;7.70;;
4317;SDS011;2172;53.576;9.934;2022-09-09T14:24:10;8.90;;;7.53;;
4317;SDS011;2172;53.576;9.934;2022-09-09T14:26:39;9.60;;;8.60;;
4317;SDS011;2172;53.576;9.934;2022-09-09T14:29:06;8.73;;;7.87;;
4317;SDS011;2172;53.576;9.934;2022-09-09T14:31:34;6.83;;;6.23;;
4317;SDS011;2172;53.576;9.934;2022-09-09T14:34:01;7.23;;;4.90;;
4317;SDS011;2172;53.576;9.934;2022-09-09T14:36:29;4.90;;;4.50;;
4317;SDS011;2172;53.576;9.934;2022-09-09T14:38:56;9.63;;;5.47;;
4317;SDS011;2172;53.576;9.934;2022-09-09T14:41:24;9.20;;;5.20;;
4317;SDS011;2172;53.576;9.934;2022-09-09T14:43:52;5.37;;;4.40;;
4317;SDS011;2172;53.576;9.934;2022-09-09T14:46:20;6.83;;;4.90;;
4317;SDS011;2172;53.576;9.934;2022-09-09T14:48:48;6.43;;;4.30;;
4317;SDS011;2172;53.576;9.934;2022-09-09T14:51:16;5.30;;;4.50;;
4317;SDS011;2172;53.576;9.934;2022-09-09T14:53:45;5.03;;;4.50;;
4317;SDS011;2172;53.576;9.934;2022-09-09T14:56:14;4.97;;;4.57;;
4317;SDS011;2172;53.576;9.934;2022-09-09T14:58:42;5.90;;;4.33;;
4317;SDS011;2172;53.576;9.934;2022-09-09T15:01:12;5.33;;;4.77;;
4317;SDS011;2172;53.576;9.934;2022-09-09T15:03:41;6.67;;;5.43;;
4317;SDS011;2172;53.576;9.934;2022-09-09T15:06:10;5.33;;;4.43;;
4317;SDS011;2172;53.576;9.934;2022-09-09T15:08:39;5.90;;;4.23;;
4317;SDS011;2172;53.576;9.934;2022-09-09T15:11:08;6.80;;;4.60;;
4317;SDS011;2172;53.576;9.934;2022-09-09T15:13:36;4.97;;;3.87;;
4317;SDS011;2172;53.576;9.934;2022-09-09T15:16:05;7.57;;;4.63;;
4317;SDS011;2172;53.576;9.934;2022-09-09T15:18:34;5.47;;;4.50;;
4317;SDS011;2172;53.576;9.934;2022-09-09T15:21:05;5.20;;;4.00;;
4317;SDS011;2172;53.576;9.934;2022-09-09T15:23:32;4.30;;;3.57;;
4317;SDS011;2172;53.576;9.934;2022-09-09T15:26:00;5.63;;;3.73;;
4317;SDS011;2172;53.576;9.934;2022-09-09T15:28:28;5.23;;;4.60;;
4317;SDS011;2172;53.576;9.934;2022-09-09T15:30:57;6.03;;;4.27;;
4317;SDS011;2172;53.576;9.934;2022-09-09T15:33:24;6.90;;;4.27;;
4317;SDS011;2172;53.576;9.934;2022-09-09T15:35:55;4.27;;;3.77;;
4317;SDS011;2172;53.576;9.934;2022-09-09T15:38:22;7.57;;;4.40;;
4317;SDS011;2172;53.576;9.934;2022-09-09T15:40:52;4.77;;;4.37;;
4317;SDS011;2172;53.576;9.934;2022-09-09T15:43:20;6.27;;;5.20;;
4317;SDS011;2172;53.576;9.934;2022-09-09T15:45:49;5.20;;;4.67;;
4317;SDS011;2172;53.576;9.934;2022-09-09T15:48:20;5.37;;;4.00;;